Time;durP1;ratioP1;P1;durP2;ratioP2;P2;SDS_P1;SDS_P2;PMS_P1;PMS_P2;Temp;Humidity;BMP_temperature;BMP_pressure;BME280_temperature;BME280_humidity;BME280_pressure;Samples;Min_cycle;Max_cycle;Signal;HPM_P1;HPM_P2
2023/08/14 00:00:19;;;;;;;8.97;3.03;;;;;;;19.14;72.57;99911.31;5025651;28;20262;-75
2023/08/14 00:02:44;;;;;;;11.93;4.20;;;;;;;19.18;72.80;99911.50;5025849;28;20417;-74
2023/08/14 00:05:09;;;;;;;14.23;3.17;;;;;;;19.20;72.59;99910.03;5024474;28;20487;-74
2023/08/14 00:07:35;;;;;;;9.95;3.78;;;;;;;19.19;72.66;99908.41;5024908;28;20305;-75
2023/08/14 00:10:00;;;;;;;10.73;4.23;;;;;;;19.19;73.15;99905.66;5024285;28;20041;-74
2023/08/14 00:12:25;;;;;;;11.45;3.88;;;;;;;19.22;72.95;99904.22;5024133;28;20259;-74
2023/08/14 00:14:51;;;;;;;15.00;3.93;;;;;;;19.24;73.01;99901.94;5023943;28;20064;-74
2023/08/14 00:17:16;;;;;;;6.63;3.47;;;;;;;19.26;72.85;99913.50;5024853;28;20321;-75
2023/08/14 00:19:41;;;;;;;8.20;3.75;;;;;;;19.25;72.88;99907.13;5024880;28;20659;-75
2023/08/14 00:22:07;;;;;;;9.77;3.73;;;;;;;19.25;73.54;99912.66;5023804;28;20045;-74
2023/08/14 00:24:32;;;;;;;11.52;4.35;;;;;;;19.25;73.11;99909.06;5023677;28;20267;-74
2023/08/14 00:26:57;;;;;;;11.63;4.83;;;;;;;19.27;73.22;99908.75;5023957;28;20740;-74
2023/08/14 00:29:22;;;;;;;7.93;3.37;;;;;;;19.27;73.47;99908.75;5024146;28;20375;-74
2023/08/14 00:31:48;;;;;;;8.10;3.75;;;;;;;19.27;73.70;99908.75;5027325;28;20283;-81
2023/08/14 00:34:13;;;;;;;9.50;3.67;;;;;;;19.22;74.35;99895.91;5026880;28;20046;-82
2023/08/14 00:36:38;;;;;;;7.33;3.33;;;;;;;19.21;74.37;99897.84;5026284;28;20354;-81
2023/08/14 00:39:03;;;;;;;10.03;3.93;;;;;;;19.27;74.22;99903.22;5027401;28;20263;-80
2023/08/14 00:41:30;;;;;;;10.27;4.33;;;;;;;19.27;73.84;99903.22;5026836;28;20310;-81
2023/08/14 00:43:56;;;;;;;8.68;3.47;;;;;;;19.27;74.03;99895.75;5027252;28;20385;-81
2023/08/14 00:46:21;;;;;;;6.65;3.45;;;;;;;19.24;74.14;99893.66;5027961;28;20132;-79
2023/08/14 00:48:47;;;;;;;9.98;3.95;;;;;;;19.25;74.24;99885.03;5027113;28;20029;-79
2023/08/14 00:51:12;;;;;;;11.40;4.13;;;;;;;19.21;74.21;99895.09;5027534;28;20030;-81
2023/08/14 00:53:38;;;;;;;13.77;4.07;;;;;;;19.22;74.44;99895.91;5026893;28;20060;-80
2023/08/14 00:56:04;;;;;;;6.50;3.20;;;;;;;19.20;74.73;99882.41;5027167;28;20065;-79
2023/08/14 00:58:30;;;;;;;8.45;3.50;;;;;;;19.18;75.00;99898.47;5027250;28;20095;-81
2023/08/14 01:00:57;;;;;;;9.98;3.58;;;;;;;19.18;75.06;99881.91;5026809;28;20037;-80
2023/08/14 01:03:23;;;;;;;10.57;4.27;;;;;;;19.16;75.26;99881.41;4989840;28;1069662;-81
2023/08/14 01:05:49;;;;;;;8.98;4.00;;;;;;;19.10;75.16;99888.22;5027297;28;20472;-81
2023/08/14 01:08:14;;;;;;;13.48;3.90;;;;;;;19.07;75.18;99891.59;5027875;28;20106;-81
2023/08/14 01:10:57;;;;;;;11.18;4.15;;;;;;;19.04;75.24;99889.50;5027340;28;20045;-80
2023/08/14 01:13:49;;;;;;;11.00;4.75;;;;;;;18.98;75.28;99891.56;5028153;28;20076;-80
2023/08/14 01:16:25;;;;;;;9.40;4.35;;;;;;;18.95;75.85;99898.56;5027240;28;20069;-81
2023/08/14 01:18:52;;;;;;;10.30;4.10;;;;;;;18.97;75.84;99892.69;5022942;28;20030;-80
2023/08/14 01:25:17;;;;;;;11.38;4.65;;;;;;;18.91;75.58;99883.75;5027218;28;20036;-81
2023/08/14 01:27:42;;;;;;;12.15;3.63;;;;;;;18.88;75.89;99887.13;5022036;28;20040;-81
2023/08/14 01:30:08;;;;;;;8.73;4.18;;;;;;;18.88;75.88;99887.13;5027347;28;20025;-75
2023/08/14 01:32:33;;;;;;;10.60;3.90;;;;;;;18.85;76.01;99894.13;5025077;28;20142;-75
2023/08/14 01:34:59;;;;;;;13.47;3.93;;;;;;;18.81;76.21;99884.84;5023697;28;20122;-75
2023/08/14 01:38:00;;;;;;;12.65;5.00;;;;;;;18.82;76.34;99882.88;5024580;28;20266;-75
2023/08/14 01:43:54;;;;;;;8.82;3.65;;;;;;;18.75;76.40;99884.16;5019644;28;20056;-80
2023/08/14 01:46:20;;;;;;;11.15;4.13;;;;;;;18.74;76.17;99877.00;5025088;28;20036;-80
2023/08/14 01:48:48;;;;;;;8.82;4.68;;;;;;;18.75;76.01;99880.59;5027041;28;20033;-80
2023/08/14 01:51:16;;;;;;;12.05;4.90;;;;;;;18.71;76.37;99865.78;5026742;28;20041;-80
2023/08/14 01:53:41;;;;;;;18.73;5.07;;;;;;;18.70;76.14;99870.50;5026190;28;20609;-81
2023/08/14 01:56:07;;;;;;;8.23;3.38;;;;;;;18.67;76.17;99862.84;5027800;28;20037;-80
2023/08/14 01:58:32;;;;;;;10.90;4.57;;;;;;;18.69;75.96;99851.50;5028271;28;20116;-82
2023/08/14 02:00:58;;;;;;;14.35;4.35;;;;;;;18.67;76.13;99849.84;5027628;28;20277;-80
2023/08/14 02:03:25;;;;;;;11.32;4.13;;;;;;;18.69;76.02;99851.50;5026737;28;21179;-81
2023/08/14 02:05:50;;;;;;;10.00;3.30;;;;;;;18.66;76.40;99841.88;5027026;28;20038;-80
2023/08/14 02:08:15;;;;;;;10.95;4.15;;;;;;;18.69;76.74;99851.50;5027702;28;20029;-81
2023/08/14 02:10:41;;;;;;;7.53;3.47;;;;;;;18.75;77.12;99852.97;5028105;28;20555;-80
2023/08/14 02:13:06;;;;;;;9.50;3.47;;;;;;;18.73;76.29;99835.91;5027757;28;20254;-80
2023/08/14 02:15:31;;;;;;;12.45;3.60;;;;;;;18.70;76.45;99837.34;5027102;28;20045;-81
2023/08/14 02:17:57;;;;;;;8.77;3.80;;;;;;;18.67;76.52;99826.97;5027271;28;20018;-81
2023/08/14 02:20:24;;;;;;;9.75;3.08;;;;;;;18.64;76.38;99830.34;5026484;28;20259;-78
2023/08/14 02:22:49;;;;;;;7.32;3.60;;;;;;;18.58;76.30;99829.69;5025776;28;20042;-80
2023/08/14 02:25:15;;;;;;;8.45;3.22;;;;;;;18.55;76.01;99831.13;5027198;28;20037;-80
2023/08/14 02:27:40;;;;;;;7.03;3.35;;;;;;;18.54;76.53;99823.97;5027471;28;20129;-81
2023/08/14 02:30:06;;;;;;;10.63;4.13;;;;;;;18.55;76.36;99828.34;5027325;28;20095;-80
2023/08/14 02:32:31;;;;;;;13.82;4.30;;;;;;;18.47;76.42;99818.09;5026966;28;20283;-81
2023/08/14 02:34:57;;;;;;;7.60;3.80;;;;;;;18.44;76.46;99815.97;5025899;28;20041;-80
2023/08/14 02:37:22;;;;;;;8.38;3.47;;;;;;;18.42;76.25;99810.78;5026846;28;21169;-80
2023/08/14 02:39:48;;;;;;;5.82;2.63;;;;;;;18.36;76.64;99811.22;5027326;28;20550;-80
2023/08/14 02:42:16;;;;;;;10.85;3.65;;;;;;;18.34;76.86;99816.25;5027725;28;20052;-81
2023/08/14 02:44:41;;;;;;;11.20;4.22;;;;;;;18.31;76.66;99810.22;5026713;28;20040;-80
2023/08/14 02:47:06;;;;;;;12.37;4.00;;;;;;;18.38;76.83;99814.47;5027414;28;20021;-81
2023/08/14 02:49:32;;;;;;;11.68;4.60;;;;;;;18.45;76.91;99806.53;5027367;28;20263;-81
2023/08/14 02:51:57;;;;;;;17.48;5.63;;;;;;;18.47;77.09;99801.53;5024390;28;20030;-74
2023/08/14 02:54:22;;;;;;;11.07;4.82;;;;;;;18.43;76.45;99800.53;5023407;28;20174;-75
2023/08/14 02:56:48;;;;;;;12.07;4.20;;;;;;;18.37;76.64;99790.75;5024339;28;20041;-74
2023/08/14 02:59:14;;;;;;;10.85;4.80;;;;;;;18.33;76.77;99800.81;5023894;28;20796;-74
2023/08/14 03:01:39;;;;;;;15.35;6.15;;;;;;;18.34;76.92;99810.72;5024654;28;20032;-74
2023/08/14 03:04:05;;;;;;;9.50;4.82;;;;;;;18.39;76.79;99810.56;5023791;28;20077;-75
2023/08/14 03:06:31;;;;;;;19.50;5.00;;;;;;;18.36;76.97;99805.69;5027220;28;20047;-74
2023/08/14 03:08:58;;;;;;;6.72;3.92;;;;;;;18.31;76.55;99804.69;5027366;28;20052;-74
2023/08/14 03:11:23;;;;;;;10.40;4.30;;;;;;;18.24;76.73;99811.81;5026847;28;20073;-74
2023/08/14 03:13:48;;;;;;;11.05;4.25;;;;;;;18.16;76.62;99813.34;5026913;28;20072;-74
2023/08/14 03:16:14;;;;;;;11.07;5.13;;;;;;;18.11;77.08;99816.22;5026516;28;20151;-75
2023/08/14 03:18:39;;;;;;;16.17;4.70;;;;;;;18.11;76.95;99810.72;5027512;28;20069;-74
2023/08/14 03:21:04;;;;;;;8.43;4.40;;;;;;;18.09;76.29;99803.59;5026149;28;20120;-75
2023/08/14 03:23:30;;;;;;;13.17;5.73;;;;;;;18.06;77.05;99812.47;5025328;28;20140;-76
2023/08/14 03:25:55;;;;;;;10.50;5.10;;;;;;;18.04;76.67;99814.72;5024866;28;20404;-75
2023/08/14 03:28:20;;;;;;;12.13;5.20;;;;;;;18.04;76.73;99820.25;5005015;28;20034;-74
2023/08/14 03:30:48;;;;;;;10.07;4.80;;;;;;;17.98;76.95;99824.25;5026568;28;20049;-74
2023/08/14 03:33:13;;;;;;;15.10;5.82;;;;;;;17.93;77.24;99811.44;5026511;28;20053;-74
2023/08/14 03:35:39;;;;;;;10.73;4.63;;;;;;;17.89;77.17;99809.59;5025860;28;20068;-74
2023/08/14 03:38:04;;;;;;;14.93;6.43;;;;;;;17.89;77.23;99810.41;5026776;28;20300;-75
2023/08/14 03:40:30;;;;;;;17.63;6.67;;;;;;;17.91;77.31;99813.69;5026990;28;20285;-74
2023/08/14 03:42:55;;;;;;;10.75;5.13;;;;;;;17.91;77.15;99813.69;5027399;28;20290;-75
2023/08/14 03:45:20;;;;;;;8.10;4.50;;;;;;;17.94;77.15;99801.22;5022135;28;20451;-75
2023/08/14 03:47:46;;;;;;;13.30;4.60;;;;;;;17.97;77.12;99806.91;5027278;28;20263;-75
2023/08/14 03:50:11;;;;;;;14.00;4.73;;;;;;;18.02;77.31;99808.72;5026886;28;20980;-75
2023/08/14 03:52:36;;;;;;;12.43;4.63;;;;;;;18.06;77.17;99806.94;5026619;28;20026;-75
2023/08/14 03:55:01;;;;;;;8.17;4.47;;;;;;;18.04;76.95;99814.72;5025294;28;20285;-75
2023/08/14 03:57:28;;;;;;;9.10;5.25;;;;;;;17.99;77.25;99812.09;5024244;28;20289;-75
2023/08/14 03:59:53;;;;;;;11.00;5.45;;;;;;;18.03;76.82;99809.53;5026709;28;20410;-81
2023/08/14 04:02:18;;;;;;;8.77;4.72;;;;;;;17.97;77.15;99817.13;5029808;28;20045;-81
2023/08/14 04:04:44;;;;;;;10.18;5.00;;;;;;;17.93;77.27;99816.13;5028223;28;20116;-81
2023/08/14 04:07:09;;;;;;;9.10;4.97;;;;;;;17.94;77.41;99806.72;5028326;28;20117;-81
2023/08/14 04:09:35;;;;;;;8.98;4.82;;;;;;;17.91;77.41;99804.59;5028954;28;20037;-80
2023/08/14 04:12:01;;;;;;;10.07;4.57;;;;;;;17.88;77.50;99803.25;5028674;28;20080;-81
2023/08/14 04:14:27;;;;;;;10.73;4.70;;;;;;;17.87;77.47;99800.81;5028420;28;20037;-81
2023/08/14 04:16:54;;;;;;;12.40;5.10;;;;;;;17.84;77.32;99805.84;5028115;28;20048;-81
2023/08/14 04:19:20;;;;;;;13.10;6.03;;;;;;;17.91;77.96;99807.34;5028684;28;20037;-81
2023/08/14 04:21:46;;;;;;;16.35;6.03;;;;;;;17.95;77.81;99805.59;5029400;28;20099;-81
2023/08/14 04:24:11;;;;;;;12.00;4.95;;;;;;;17.98;77.52;99802.19;5027399;28;20061;-81
2023/08/14 04:26:37;;;;;;;14.15;4.93;;;;;;;18.03;77.49;99799.31;5027773;28;20061;-81
2023/08/14 04:29:09;;;;;;;18.20;5.75;;;;;;;17.95;77.79;99789.03;5028164;28;20064;-81
2023/08/14 04:31:38;;;;;;;10.02;4.45;;;;;;;17.91;78.08;99797.13;5027547;28;20037;-80
2023/08/14 04:34:04;;;;;;;10.48;4.80;;;;;;;17.93;77.78;99794.06;5027333;28;20037;-80
2023/08/14 04:36:31;;;;;;;12.43;4.70;;;;;;;17.93;77.77;99783.03;5027862;28;20041;-80
2023/08/14 04:38:57;;;;;;;9.48;5.28;;;;;;;17.89;77.91;99780.09;5028459;28;20040;-80
2023/08/14 04:41:22;;;;;;;10.85;5.32;;;;;;;17.90;77.96;99775.41;5028236;28;20447;-81
2023/08/14 04:43:47;;;;;;;9.15;4.38;;;;;;;17.88;78.02;99778.44;5027103;28;20044;-79
2023/08/14 04:46:28;;;;;;;6.82;3.67;;;;;;;17.89;77.90;99787.53;5027460;28;20064;-80
2023/08/14 04:48:53;;;;;;;9.95;4.20;;;;;;;17.92;78.05;99781.41;5027579;28;20026;-79
2023/08/14 04:51:18;;;;;;;12.33;5.83;;;;;;;17.98;78.11;99788.41;5028175;28;20035;-82
2023/08/14 04:53:43;;;;;;;14.13;5.43;;;;;;;17.98;78.23;99796.69;5028299;28;20286;-80
2023/08/14 04:56:09;;;;;;;12.07;5.03;;;;;;;18.06;78.51;99798.69;5027857;28;20258;-80
2023/08/14 04:58:34;;;;;;;14.27;6.13;;;;;;;18.09;78.17;99798.06;5028699;28;20037;-80
2023/08/14 05:00:59;;;;;;;16.57;5.73;;;;;;;18.07;78.42;99791.22;5026200;28;20060;-74
2023/08/14 05:03:24;;;;;;;11.53;5.00;;;;;;;18.06;77.96;99790.41;5024683;28;20694;-74
2023/08/14 05:05:51;;;;;;;9.23;4.63;;;;;;;18.04;78.47;99791.88;5025571;28;20285;-74
2023/08/14 05:08:16;;;;;;;12.70;4.63;;;;;;;18.04;78.45;99789.91;5024609;28;20271;-74
2023/08/14 05:10:41;;;;;;;10.37;4.63;;;;;;;18.08;78.57;99796.41;5024957;28;20112;-75
2023/08/14 05:13:07;;;;;;;11.83;5.30;;;;;;;18.08;78.38;99790.13;5024823;28;20701;-75
2023/08/14 05:15:32;;;;;;;11.73;4.80;;;;;;;18.12;78.54;99795.81;5024626;28;20328;-74
2023/08/14 05:17:57;;;;;;;17.87;5.63;;;;;;;18.15;78.54;99787.72;5024577;28;20257;-75
2023/08/14 05:20:22;;;;;;;9.23;4.33;;;;;;;18.17;78.48;99787.41;5024728;28;20458;-74
2023/08/14 05:22:48;;;;;;;10.07;4.00;;;;;;;18.19;78.90;99790.66;5024853;28;20266;-74
2023/08/14 05:25:13;;;;;;;11.33;4.10;;;;;;;18.23;78.38;99788.91;5023559;28;21329;-76
2023/08/14 05:27:38;;;;;;;18.38;5.47;;;;;;;18.25;78.54;99805.13;5024188;28;20307;-74
2023/08/14 05:30:05;;;;;;;11.43;5.45;;;;;;;18.25;78.14;99805.97;5023432;28;20037;-74
2023/08/14 05:32:31;;;;;;;10.85;4.35;;;;;;;18.33;78.35;99796.09;5022941;28;20107;-74
2023/08/14 05:34:56;;;;;;;12.13;5.05;;;;;;;18.39;78.41;99786.56;5024383;28;20033;-75
2023/08/14 05:37:21;;;;;;;9.27;5.45;;;;;;;18.44;78.16;99791.13;5024763;28;20399;-75
2023/08/14 05:39:47;;;;;;;14.27;6.27;;;;;;;18.47;78.58;99786.94;5025187;28;20580;-76
2023/08/14 05:42:12;;;;;;;8.30;4.63;;;;;;;18.49;78.67;99782.69;5024239;28;20257;-74
2023/08/14 05:44:37;;;;;;;10.57;5.35;;;;;;;18.51;79.00;99783.19;5023220;28;20882;-74
2023/08/14 05:47:03;;;;;;;10.93;5.15;;;;;;;18.53;79.32;99786.44;5023961;28;20044;-75
2023/08/14 05:49:28;;;;;;;13.90;5.60;;;;;;;18.59;79.13;99787.13;5022188;28;20037;-74
2023/08/14 05:51:53;;;;;;;9.57;4.18;;;;;;;18.67;79.32;99791.06;5022901;28;20918;-76
2023/08/14 05:54:18;;;;;;;10.67;4.40;;;;;;;18.70;79.21;99798.69;5021803;28;20163;-74
2023/08/14 05:56:45;;;;;;;8.27;4.00;;;;;;;18.78;79.03;99795.16;5022493;28;20087;-74
2023/08/14 05:59:10;;;;;;;11.95;4.45;;;;;;;18.83;79.22;99793.38;5022297;28;20592;-75
2023/08/14 06:01:36;;;;;;;10.93;4.00;;;;;;;18.88;78.87;99787.72;5022332;28;20879;-75
2023/08/14 06:04:01;;;;;;;11.20;4.07;;;;;;;18.96;77.86;99794.38;5021327;28;20115;-74
2023/08/14 06:06:26;;;;;;;12.63;4.37;;;;;;;19.02;76.74;99799.44;5022253;28;20697;-75
2023/08/14 06:08:52;;;;;;;6.43;3.30;;;;;;;19.07;76.85;99794.91;5022472;28;20263;-74
2023/08/14 06:11:17;;;;;;;9.20;3.50;;;;;;;19.10;76.57;99791.50;5022569;28;20032;-80
2023/08/14 06:13:42;;;;;;;13.73;3.97;;;;;;;19.11;75.97;99784.84;5022785;28;20083;-80
2023/08/14 06:16:08;;;;;;;8.70;3.08;;;;;;;19.16;76.40;99781.94;5022477;28;20648;-81
2023/08/14 06:18:33;;;;;;;9.87;3.63;;;;;;;19.16;75.95;99776.41;5022944;28;20037;-81
2023/08/14 06:20:58;;;;;;;17.83;4.27;;;;;;;19.17;75.76;99772.53;5022506;28;20344;-75
2023/08/14 06:23:23;;;;;;;12.53;4.97;;;;;;;19.24;76.39;99769.28;5021891;28;20267;-75
2023/08/14 06:25:49;;;;;;;11.27;3.57;;;;;;;19.30;76.90;99772.72;5022375;28;20282;-75
2023/08/14 06:28:14;;;;;;;10.57;4.95;;;;;;;19.34;77.06;99765.41;5022544;28;20115;-75
2023/08/14 06:30:40;;;;;;;11.88;4.00;;;;;;;19.35;76.91;99769.78;5022603;28;20037;-75
2023/08/14 06:33:05;;;;;;;10.30;3.22;;;;;;;19.41;76.92;99778.72;5022409;28;20052;-74
2023/08/14 06:35:30;;;;;;;8.27;3.80;;;;;;;19.44;76.25;99770.59;5021708;28;20037;-75
2023/08/14 06:37:56;;;;;;;7.03;3.30;;;;;;;19.52;76.04;99771.75;5021287;28;20752;-75
2023/08/14 06:40:21;;;;;;;13.90;3.50;;;;;;;19.62;75.54;99781.66;5005777;28;20033;-75
2023/08/14 06:42:46;;;;;;;8.07;3.22;;;;;;;19.71;75.20;99785.22;5025457;28;20282;-75
2023/08/14 06:45:11;;;;;;;8.10;2.83;;;;;;;19.76;74.77;99791.72;5025331;28;20625;-74
2023/08/14 06:47:44;;;;;;;11.13;3.60;;;;;;;19.77;75.10;99782.31;5024934;28;20340;-74
2023/08/14 06:50:10;;;;;;;12.73;4.35;;;;;;;19.83;75.24;99800.34;5024703;28;20293;-74
2023/08/14 06:52:35;;;;;;;8.10;3.20;;;;;;;19.88;74.69;99810.41;5026019;28;20541;-75
2023/08/14 06:55:00;;;;;;;9.13;3.50;;;;;;;19.94;74.36;99809.94;5026347;28;20128;-75
2023/08/14 06:57:26;;;;;;;7.50;2.67;;;;;;;20.00;73.53;99801.44;5027077;28;20805;-74
2023/08/14 06:59:51;;;;;;;12.07;3.38;;;;;;;20.02;73.59;99788.91;5028393;28;20045;-75
2023/08/14 07:02:17;;;;;;;8.67;3.03;;;;;;;20.05;74.11;99771.69;5028435;28;20053;-75
2023/08/14 07:04:42;;;;;;;9.18;2.75;;;;;;;20.07;73.99;99771.34;5027754;28;20365;-75
2023/08/14 07:07:07;;;;;;;10.07;3.47;;;;;;;20.08;74.36;99781.28;5028844;28;20037;-74
2023/08/14 07:09:33;;;;;;;12.33;3.67;;;;;;;20.12;74.68;99773.13;5029561;28;20247;-74
2023/08/14 07:11:59;;;;;;;5.45;2.78;;;;;;;20.17;74.42;99784.03;5029841;28;20029;-74
2023/08/14 07:14:24;;;;;;;6.60;3.17;;;;;;;20.21;74.61;99784.19;5028156;28;20037;-75
2023/08/14 07:16:49;;;;;;;11.90;3.95;;;;;;;20.22;74.80;99785.81;5027875;28;20048;-74
2023/08/14 07:19:15;;;;;;;12.57;4.05;;;;;;;20.23;74.25;99781.91;5029634;28;20038;-76
2023/08/14 07:21:40;;;;;;;11.68;3.60;;;;;;;20.26;74.33;99781.22;5035281;28;20033;-86
2023/08/14 07:24:05;;;;;;;11.07;4.03;;;;;;;20.31;73.82;99789.38;5035064;28;20045;-83
2023/08/14 07:26:31;;;;;;;67.45;27.95;;;;;;;20.22;76.72;99791.38;5034839;28;20317;-86
2023/08/14 07:28:56;;;;;;;75.63;27.23;;;;;;;20.26;76.20;99782.06;5034178;28;20017;-84
2023/08/14 07:31:22;;;;;;;43.03;12.33;;;;;;;20.35;74.97;99778.44;5034390;28;20326;-84
2023/08/14 07:33:47;;;;;;;22.52;6.60;;;;;;;20.41;74.95;99772.41;5032880;28;20665;-83
2023/08/14 07:36:12;;;;;;;17.40;5.37;;;;;;;20.47;74.98;99781.34;5030726;28;20041;-83
2023/08/14 07:38:37;;;;;;;9.30;4.55;;;;;;;20.51;74.94;99775.94;5029382;28;20033;-82
2023/08/14 07:41:03;;;;;;;11.30;4.50;;;;;;;20.52;74.63;99772.81;5027959;28;20041;-84
2023/08/14 07:43:28;;;;;;;10.67;4.17;;;;;;;20.53;74.89;99774.47;5033010;28;20282;-84
2023/08/14 07:45:54;;;;;;;8.50;3.37;;;;;;;20.53;75.50;99776.41;5032230;28;20278;-84
2023/08/14 07:48:19;;;;;;;12.30;3.90;;;;;;;20.56;75.29;99784.06;5033222;28;20271;-84
2023/08/14 07:50:44;;;;;;;153.88;58.55;;;;;;;20.57;77.30;99777.38;5033112;28;20100;-83
2023/08/14 07:53:10;;;;;;;62.45;25.92;;;;;;;20.59;76.56;99788.94;5033550;28;20025;-84
2023/08/14 07:55:36;;;;;;;25.70;10.52;;;;;;;20.62;75.62;99793.81;5030876;28;20051;-85
2023/08/14 07:58:01;;;;;;;13.48;4.97;;;;;;;20.69;74.82;99798.81;5032719;28;20676;-83
2023/08/14 08:00:27;;;;;;;13.27;4.68;;;;;;;20.75;74.44;99785.59;5025877;28;20140;-85
2023/08/14 08:02:52;;;;;;;7.40;3.58;;;;;;;20.80;74.12;99790.16;5027581;28;20048;-87
2023/08/14 08:05:18;;;;;;;11.38;3.92;;;;;;;20.83;73.93;99784.75;5025652;28;20032;-88
2023/08/14 08:07:43;;;;;;;10.57;4.20;;;;;;;20.87;74.32;99776.56;5026440;28;20021;-86
2023/08/14 08:10:08;;;;;;;11.30;4.33;;;;;;;20.88;73.69;99772.66;5026878;28;20108;-86
2023/08/14 08:12:34;;;;;;;9.93;3.28;;;;;;;20.92;73.58;99767.25;5026906;28;20041;-86
2023/08/14 08:14:59;;;;;;;6.78;3.20;;;;;;;20.96;73.71;99762.66;5026085;28;20029;-86
2023/08/14 08:17:24;;;;;;;11.27;3.92;;;;;;;20.99;73.52;99762.84;5025519;28;20044;-87
2023/08/14 08:19:50;;;;;;;9.17;3.73;;;;;;;21.07;73.42;99763.13;5025736;28;20047;-86
2023/08/14 08:22:15;;;;;;;7.75;3.63;;;;;;;21.11;72.98;99773.19;5025497;28;20029;-86
2023/08/14 08:24:41;;;;;;;10.07;3.70;;;;;;;21.16;72.83;99782.44;5029288;28;20030;-86
2023/08/14 08:27:06;;;;;;;10.23;2.95;;;;;;;21.21;72.78;99787.81;5030575;28;20029;-85
2023/08/14 08:29:31;;;;;;;8.03;3.57;;;;;;;21.25;72.44;99797.09;5031034;28;20033;-86
2023/08/14 08:31:56;;;;;;;7.53;3.30;;;;;;;21.28;72.25;99796.41;5026842;28;20030;-80
2023/08/14 08:34:22;;;;;;;8.10;3.00;;;;;;;21.32;72.27;99791.81;5028233;28;20254;-78
2023/08/14 08:36:47;;;;;;;8.77;3.22;;;;;;;21.33;72.50;99787.91;5028381;28;20308;-79
2023/08/14 08:39:12;;;;;;;9.85;3.95;;;;;;;21.32;72.80;99786.25;5025619;28;20590;-82
2023/08/14 08:41:40;;;;;;;6.40;3.83;;;;;;;21.32;72.54;99775.16;5027262;28;20069;-80
2023/08/14 08:44:09;;;;;;;7.63;3.03;;;;;;;21.32;72.32;99772.41;5026394;28;20796;-80
2023/08/14 08:46:39;;;;;;;11.05;3.92;;;;;;;21.34;72.61;99767.31;5030778;28;20032;-79
2023/08/14 08:49:05;;;;;;;7.45;3.20;;;;;;;21.34;72.10;99761.78;5029699;28;20099;-77
2023/08/14 08:51:32;;;;;;;12.85;3.30;;;;;;;21.39;72.47;99757.19;5030908;28;20025;-77
2023/08/14 08:53:58;;;;;;;8.57;3.42;;;;;;;21.40;72.50;99758.81;5030462;28;20029;-77
2023/08/14 08:56:25;;;;;;;10.27;3.53;;;;;;;21.43;71.93;99770.03;5015482;28;20025;-79
2023/08/14 08:58:51;;;;;;;8.05;3.15;;;;;;;21.47;71.79;99761.84;5031552;28;20087;-79
2023/08/14 09:01:17;;;;;;;6.38;3.15;;;;;;;21.54;71.33;99762.09;5032205;28;20049;-77
2023/08/14 09:03:43;;;;;;;9.57;3.33;;;;;;;21.58;70.81;99763.03;5028636;28;20053;-77
2023/08/14 09:06:08;;;;;;;10.25;3.30;;;;;;;21.62;70.37;99765.16;5030350;28;20033;-78
2023/08/14 09:08:34;;;;;;;8.57;3.63;;;;;;;21.68;70.78;99763.78;5031396;28;20104;-78
2023/08/14 09:10:59;;;;;;;8.30;2.47;;;;;;;21.68;69.80;99763.78;5030849;28;20064;-77
2023/08/14 09:13:24;;;;;;;6.93;2.30;;;;;;;21.71;69.35;99771.41;5030284;28;20060;-77
2023/08/14 09:15:52;;;;;;;10.20;2.70;;;;;;;21.77;68.65;99772.84;5030646;28;20247;-78
2023/08/14 09:18:17;;;;;;;8.90;2.47;;;;;;;21.84;68.90;99777.06;5029369;28;20258;-78
2023/08/14 09:20:42;;;;;;;6.00;2.50;;;;;;;21.87;70.02;99784.69;5030974;28;20029;-79
2023/08/14 09:23:12;;;;;;;12.35;3.75;;;;;;;21.95;69.26;99783.78;5032767;28;20569;-75
2023/08/14 09:25:40;;;;;;;7.97;3.25;;;;;;;21.96;68.70;99788.19;5034311;28;20124;-76
2023/08/14 09:28:08;;;;;;;17.20;4.63;;;;;;;21.93;69.08;99780.53;5033447;28;20033;-79
2023/08/14 09:30:36;;;;;;;15.25;4.25;;;;;;;22.02;69.50;99789.59;5016362;28;20026;-78
2023/08/14 09:33:03;;;;;;;9.90;3.40;;;;;;;22.07;67.71;99787.75;5035413;28;20029;-75
2023/08/14 09:35:28;;;;;;;9.30;3.78;;;;;;;22.01;67.63;99785.19;5032916;28;21189;-75
2023/08/14 09:37:53;;;;;;;7.80;3.08;;;;;;;22.00;66.54;99789.13;5033402;28;20076;-78
2023/08/14 09:40:18;;;;;;;11.60;2.93;;;;;;;22.08;66.89;99775.50;5035465;28;20101;-82
2023/08/14 09:42:47;;;;;;;8.73;3.10;;;;;;;22.17;66.18;99773.41;5036227;28;20270;-81
2023/08/14 09:45:13;;;;;;;966.83;897.35;;;;;;;22.24;66.26;99768.13;5033641;28;20262;-82
2023/08/14 09:47:41;;;;;;;873.40;815.00;;;;;;;22.32;65.75;99768.38;5034804;28;20026;-81
2023/08/14 09:50:07;;;;;;;309.95;292.40;;;;;;;22.39;65.36;99758.31;5037553;28;20029;-81
2023/08/14 09:52:32;;;;;;;770.65;720.13;;;;;;;22.51;64.57;99754.75;5037794;28;20034;-83
2023/08/14 09:55:00;;;;;;;989.80;899.45;;;;;;;22.59;62.48;99760.53;5038263;28;20040;-81
2023/08/14 09:57:25;;;;;;;609.00;558.92;;;;;;;22.65;61.74;99753.59;5038093;28;20083;-82
2023/08/14 09:59:52;;;;;;;941.78;845.05;;;;;;;22.71;63.54;99741.09;5038598;28;20036;-81
2023/08/14 10:02:21;;;;;;;1094.57;992.58;;;;;;;22.71;63.37;99741.09;5036340;28;20038;-82
2023/08/14 10:04:48;;;;;;;644.10;586.70;;;;;;;22.75;62.00;99741.22;5037520;28;20025;-81
2023/08/14 10:07:15;;;;;;;993.63;892.03;;;;;;;22.74;62.70;99734.03;5037849;28;20036;-82
2023/08/14 10:09:45;;;;;;;478.85;439.63;;;;;;;22.82;62.20;99732.31;5039146;28;20041;-83
2023/08/14 10:12:16;;;;;;;805.90;754.50;;;;;;;22.91;62.30;99735.75;5020259;28;20033;-83
2023/08/14 10:14:48;;;;;;;267.02;251.52;;;;;;;22.98;61.29;99730.41;5020325;28;20556;-83
2023/08/14 10:17:27;;;;;;;1999.90;999.90;;;;;;;22.95;59.93;99722.78;5040901;28;20064;-83
2023/08/14 10:19:53;;;;;;;75.57;71.57;;;;;;;22.85;61.70;99726.84;5041033;28;20033;-84
2023/08/14 10:22:20;;;;;;;382.42;358.13;;;;;;;22.86;62.01;99724.88;5041607;28;20037;-81
2023/08/14 10:24:45;;;;;;;766.92;517.60;;;;;;;22.93;61.46;99718.72;5042292;28;20083;-80
2023/08/14 10:27:11;;;;;;;1999.90;815.10;;;;;;;23.00;61.15;99710.63;5041011;28;20413;-82
2023/08/14 10:29:37;;;;;;;1243.85;862.92;;;;;;;22.99;61.39;99711.75;5043343;28;20033;-82
2023/08/14 10:32:04;;;;;;;892.05;806.78;;;;;;;22.94;61.56;99721.13;5042512;28;20043;-81
2023/08/14 10:34:30;;;;;;;1162.40;969.67;;;;;;;22.95;61.40;99711.66;5032315;28;20037;-83
2023/08/14 10:36:56;;;;;;;1999.90;999.90;;;;;;;23.02;60.89;99707.47;5033776;28;20049;-82
2023/08/14 10:39:33;;;;;;;1999.90;999.60;;;;;;;22.98;60.92;99708.16;5024070;28;20021;-83
2023/08/14 10:41:59;;;;;;;1999.90;999.90;;;;;;;22.96;60.76;99704.94;5042089;28;20271;-82
2023/08/14 10:44:33;;;;;;;1999.90;999.90;;;;;;;23.01;60.78;99715.00;5041230;28;20474;-82
2023/08/14 10:47:05;;;;;;;1999.90;999.90;;;;;;;23.01;60.72;99715.00;5040897;28;20044;-80
2023/08/14 10:49:41;;;;;;;1999.90;999.90;;;;;;;23.02;60.39;99721.38;5040341;28;20907;-82
2023/08/14 10:52:06;;;;;;;1422.35;923.65;;;;;;;23.02;61.69;99718.59;5041363;28;20022;-82
2023/08/14 10:54:37;;;;;;;1999.90;999.90;;;;;;;23.06;61.15;99711.19;5040562;28;20044;-80
2023/08/14 10:57:07;;;;;;;1999.90;999.90;;;;;;;23.06;60.81;99717.56;5041428;28;20806;-81
2023/08/14 10:59:34;;;;;;;925.10;826.42;;;;;;;23.04;61.36;99735.72;5040994;28;20022;-81
2023/08/14 11:02:13;;;;;;;1999.90;999.90;;;;;;;23.12;60.43;99725.63;5040341;28;20486;-82
2023/08/14 11:05:10;;;;;;;1999.90;956.45;;;;;;;23.11;60.31;99724.81;5040308;28;20048;-83
2023/08/14 11:07:36;;;;;;;1999.90;999.90;;;;;;;23.11;60.16;99719.25;5039246;28;20083;-80
2023/08/14 11:10:04;;;;;;;1209.07;415.58;;;;;;;23.11;60.74;99733.16;5040590;28;20033;-83
2023/08/14 11:12:30;;;;;;;1999.90;999.90;;;;;;;23.09;61.12;99727.94;5041434;28;20498;-81
2023/08/14 11:14:57;;;;;;;1999.90;999.90;;;;;;;23.13;61.28;99730.84;5039371;28;20053;-83
2023/08/14 11:17:23;;;;;;;1999.90;999.90;;;;;;;23.21;60.96;99726.28;5035389;28;20687;-83
2023/08/14 11:19:49;;;;;;;1976.82;999.90;;;;;;;23.25;61.55;99723.63;5038244;28;20090;-83
2023/08/14 11:22:14;;;;;;;1412.85;999.90;;;;;;;23.27;61.72;99721.31;5033712;28;20570;-84
2023/08/14 11:24:40;;;;;;;1238.73;999.90;;;;;;;23.29;61.52;99725.34;5031835;28;20060;-82
2023/08/14 11:27:05;;;;;;;1296.63;887.60;;;;;;;23.38;61.78;99725.19;5032699;28;20373;-83